sensor_id;sensor_type;location;lat;lon;timestamp;P1;durP1;ratioP1;P2;durP2;ratioP2
32295;SDS011;18781;51.550;5.418;2024-02-23T00:01:43;5.07;;;2.08;;
32295;SDS011;18781;51.550;5.418;2024-02-23T00:04:17;9.23;;;2.90;;
32295;SDS011;18781;51.550;5.418;2024-02-23T00:06:45;5.35;;;2.20;;
32295;SDS011;18781;51.550;5.418;2024-02-23T00:09:11;7.10;;;3.08;;
32295;SDS011;18781;51.550;5.418;2024-02-23T00:11:40;8.45;;;2.92;;
32295;SDS011;18781;51.550;5.418;2024-02-23T00:14:09;7.20;;;2.70;;
32295;SDS011;18781;51.550;5.418;2024-02-23T00:16:39;6.63;;;2.67;;
32295;SDS011;18781;51.550;5.418;2024-02-23T00:19:07;8.45;;;2.22;;
32295;SDS011;18781;51.550;5.418;2024-02-23T00:21:34;8.95;;;2.42;;
32295;SDS011;18781;51.550;5.418;2024-02-23T00:24:02;8.13;;;2.33;;
32295;SDS011;18781;51.550;5.418;2024-02-23T00:26:27;6.72;;;2.00;;
32295;SDS011;18781;51.550;5.418;2024-02-23T00:28:54;4.95;;;2.00;;
32295;SDS011;18781;51.550;5.418;2024-02-23T00:31:20;6.72;;;1.98;;
32295;SDS011;18781;51.550;5.418;2024-02-23T00:33:46;7.45;;;1.90;;
32295;SDS011;18781;51.550;5.418;2024-02-23T00:36:11;5.78;;;2.30;;
32295;SDS011;18781;51.550;5.418;2024-02-23T00:38:37;5.05;;;1.75;;
32295;SDS011;18781;51.550;5.418;2024-02-23T00:41:03;6.53;;;1.52;;
32295;SDS011;18781;51.550;5.418;2024-02-23T00:43:28;4.05;;;1.45;;
32295;SDS011;18781;51.550;5.418;2024-02-23T00:45:54;3.95;;;1.63;;
32295;SDS011;18781;51.550;5.418;2024-02-23T00:48:20;4.30;;;1.65;;
32295;SDS011;18781;51.550;5.418;2024-02-23T00:50:46;3.35;;;1.38;;
32295;SDS011;18781;51.550;5.418;2024-02-23T00:53:12;4.78;;;1.40;;
32295;SDS011;18781;51.550;5.418;2024-02-23T00:55:37;6.57;;;1.70;;
32295;SDS011;18781;51.550;5.418;2024-02-23T00:58:03;8.30;;;1.48;;
32295;SDS011;18781;51.550;5.418;2024-02-23T01:00:29;4.68;;;1.13;;
32295;SDS011;18781;51.550;5.418;2024-02-23T01:02:54;4.20;;;1.30;;
32295;SDS011;18781;51.550;5.418;2024-02-23T01:05:20;4.55;;;1.33;;
32295;SDS011;18781;51.550;5.418;2024-02-23T01:07:45;8.57;;;1.10;;
32295;SDS011;18781;51.550;5.418;2024-02-23T01:10:11;5.53;;;1.38;;
32295;SDS011;18781;51.550;5.418;2024-02-23T01:12:37;6.55;;;1.45;;
32295;SDS011;18781;51.550;5.418;2024-02-23T01:15:02;4.53;;;1.20;;
32295;SDS011;18781;51.550;5.418;2024-02-23T01:17:28;6.93;;;1.40;;
32295;SDS011;18781;51.550;5.418;2024-02-23T01:19:54;6.70;;;1.33;;
32295;SDS011;18781;51.550;5.418;2024-02-23T01:22:19;8.82;;;1.48;;
32295;SDS011;18781;51.550;5.418;2024-02-23T01:24:45;15.40;;;1.73;;
32295;SDS011;18781;51.550;5.418;2024-02-23T01:27:11;11.70;;;1.50;;
32295;SDS011;18781;51.550;5.418;2024-02-23T01:29:36;6.10;;;1.38;;
32295;SDS011;18781;51.550;5.418;2024-02-23T01:32:02;4.07;;;1.27;;
32295;SDS011;18781;51.550;5.418;2024-02-23T01:34:28;6.13;;;1.20;;
32295;SDS011;18781;51.550;5.418;2024-02-23T01:36:54;7.93;;;1.38;;
32295;SDS011;18781;51.550;5.418;2024-02-23T01:39:20;8.50;;;1.60;;
32295;SDS011;18781;51.550;5.418;2024-02-23T01:41:45;9.65;;;1.58;;
32295;SDS011;18781;51.550;5.418;2024-02-23T01:44:11;4.25;;;1.13;;
32295;SDS011;18781;51.550;5.418;2024-02-23T01:46:37;9.30;;;1.63;;
32295;SDS011;18781;51.550;5.418;2024-02-23T01:49:02;8.50;;;1.73;;
32295;SDS011;18781;51.550;5.418;2024-02-23T01:51:29;9.57;;;1.75;;
32295;SDS011;18781;51.550;5.418;2024-02-23T01:53:55;7.55;;;1.45;;
32295;SDS011;18781;51.550;5.418;2024-02-23T01:56:20;9.65;;;1.67;;
32295;SDS011;18781;51.550;5.418;2024-02-23T01:58:46;7.28;;;1.10;;
32295;SDS011;18781;51.550;5.418;2024-02-23T02:01:12;11.52;;;1.40;;
32295;SDS011;18781;51.550;5.418;2024-02-23T02:03:38;9.15;;;1.60;;
32295;SDS011;18781;51.550;5.418;2024-02-23T02:06:09;10.15;;;1.73;;
32295;SDS011;18781;51.550;5.418;2024-02-23T02:08:36;8.95;;;2.17;;
32295;SDS011;18781;51.550;5.418;2024-02-23T02:11:02;8.80;;;1.40;;
32295;SDS011;18781;51.550;5.418;2024-02-23T02:13:28;6.57;;;1.67;;
32295;SDS011;18781;51.550;5.418;2024-02-23T02:15:54;11.55;;;1.45;;
32295;SDS011;18781;51.550;5.418;2024-02-23T02:18:20;8.05;;;1.50;;
32295;SDS011;18781;51.550;5.418;2024-02-23T02:20:58;4.90;;;1.48;;
32295;SDS011;18781;51.550;5.418;2024-02-23T02:23:24;5.55;;;1.17;;
32295;SDS011;18781;51.550;5.418;2024-02-23T02:25:55;7.63;;;1.42;;
32295;SDS011;18781;51.550;5.418;2024-02-23T02:28:22;5.78;;;1.83;;
32295;SDS011;18781;51.550;5.418;2024-02-23T02:30:48;12.13;;;1.63;;
32295;SDS011;18781;51.550;5.418;2024-02-23T02:33:15;4.60;;;1.10;;
32295;SDS011;18781;51.550;5.418;2024-02-23T02:35:40;7.70;;;1.00;;
32295;SDS011;18781;51.550;5.418;2024-02-23T02:38:06;5.72;;;1.30;;
32295;SDS011;18781;51.550;5.418;2024-02-23T02:40:31;7.57;;;1.40;;
32295;SDS011;18781;51.550;5.418;2024-02-23T02:42:57;5.50;;;1.08;;
32295;SDS011;18781;51.550;5.418;2024-02-23T02:45:23;6.53;;;1.08;;
32295;SDS011;18781;51.550;5.418;2024-02-23T02:47:49;12.18;;;1.50;;
32295;SDS011;18781;51.550;5.418;2024-02-23T02:50:15;12.73;;;1.50;;
32295;SDS011;18781;51.550;5.418;2024-02-23T02:52:41;10.63;;;1.90;;
32295;SDS011;18781;51.550;5.418;2024-02-23T02:55:07;8.93;;;1.60;;
32295;SDS011;18781;51.550;5.418;2024-02-23T02:57:33;8.48;;;2.08;;
32295;SDS011;18781;51.550;5.418;2024-02-23T03:00:00;6.63;;;1.63;;
32295;SDS011;18781;51.550;5.418;2024-02-23T03:02:29;7.82;;;1.50;;
32295;SDS011;18781;51.550;5.418;2024-02-23T03:04:58;6.95;;;1.25;;
32295;SDS011;18781;51.550;5.418;2024-02-23T03:07:24;8.50;;;1.58;;
32295;SDS011;18781;51.550;5.418;2024-02-23T03:09:50;10.52;;;1.80;;
32295;SDS011;18781;51.550;5.418;2024-02-23T03:12:16;11.50;;;1.35;;
32295;SDS011;18781;51.550;5.418;2024-02-23T03:14:42;9.68;;;1.90;;
32295;SDS011;18781;51.550;5.418;2024-02-23T03:17:09;5.35;;;1.25;;
32295;SDS011;18781;51.550;5.418;2024-02-23T03:19:35;11.60;;;1.40;;
32295;SDS011;18781;51.550;5.418;2024-02-23T03:22:01;10.27;;;1.65;;
32295;SDS011;18781;51.550;5.418;2024-02-23T03:24:27;7.00;;;1.15;;
32295;SDS011;18781;51.550;5.418;2024-02-23T03:26:52;5.85;;;1.30;;
32295;SDS011;18781;51.550;5.418;2024-02-23T03:29:18;7.03;;;1.45;;
32295;SDS011;18781;51.550;5.418;2024-02-23T03:31:45;4.40;;;1.48;;
32295;SDS011;18781;51.550;5.418;2024-02-23T03:34:10;8.02;;;1.40;;
32295;SDS011;18781;51.550;5.418;2024-02-23T03:36:38;8.82;;;1.50;;
32295;SDS011;18781;51.550;5.418;2024-02-23T03:39:04;6.05;;;1.30;;
32295;SDS011;18781;51.550;5.418;2024-02-23T03:41:29;8.70;;;1.65;;
32295;SDS011;18781;51.550;5.418;2024-02-23T03:43:55;16.45;;;2.38;;
32295;SDS011;18781;51.550;5.418;2024-02-23T03:46:20;9.32;;;1.70;;
32295;SDS011;18781;51.550;5.418;2024-02-23T03:48:47;7.50;;;1.40;;
32295;SDS011;18781;51.550;5.418;2024-02-23T03:51:12;7.47;;;1.38;;
32295;SDS011;18781;51.550;5.418;2024-02-23T03:53:38;11.55;;;1.90;;
32295;SDS011;18781;51.550;5.418;2024-02-23T03:56:04;13.90;;;1.60;;
32295;SDS011;18781;51.550;5.418;2024-02-23T03:58:29;9.32;;;1.42;;
32295;SDS011;18781;51.550;5.418;2024-02-23T04:00:55;9.75;;;1.60;;
32295;SDS011;18781;51.550;5.418;2024-02-23T04:03:20;9.18;;;1.80;;
32295;SDS011;18781;51.550;5.418;2024-02-23T04:05:46;13.48;;;1.90;;
32295;SDS011;18781;51.550;5.418;2024-02-23T04:08:12;7.68;;;1.67;;
32295;SDS011;18781;51.550;5.418;2024-02-23T04:10:37;8.88;;;1.40;;
32295;SDS011;18781;51.550;5.418;2024-02-23T04:13:03;8.43;;;1.80;;
32295;SDS011;18781;51.550;5.418;2024-02-23T04:15:29;8.57;;;1.75;;
32295;SDS011;18781;51.550;5.418;2024-02-23T04:17:55;6.38;;;1.67;;
32295;SDS011;18781;51.550;5.418;2024-02-23T04:20:20;9.50;;;1.45;;
32295;SDS011;18781;51.550;5.418;2024-02-23T04:22:46;12.77;;;1.80;;
32295;SDS011;18781;51.550;5.418;2024-02-23T04:25:12;12.68;;;2.25;;
32295;SDS011;18781;51.550;5.418;2024-02-23T04:27:38;8.95;;;2.28;;
32295;SDS011;18781;51.550;5.418;2024-02-23T04:30:04;14.57;;;2.45;;
32295;SDS011;18781;51.550;5.418;2024-02-23T04:32:30;11.85;;;2.38;;
32295;SDS011;18781;51.550;5.418;2024-02-23T04:34:56;13.98;;;2.40;;
32295;SDS011;18781;51.550;5.418;2024-02-23T04:37:22;11.70;;;1.90;;
32295;SDS011;18781;51.550;5.418;2024-02-23T04:39:48;9.75;;;2.08;;
32295;SDS011;18781;51.550;5.418;2024-02-23T04:42:13;17.73;;;2.35;;
32295;SDS011;18781;51.550;5.418;2024-02-23T04:44:41;10.15;;;1.85;;
32295;SDS011;18781;51.550;5.418;2024-02-23T04:47:07;11.80;;;2.33;;
32295;SDS011;18781;51.550;5.418;2024-02-23T04:49:33;11.25;;;1.95;;
32295;SDS011;18781;51.550;5.418;2024-02-23T04:51:59;10.52;;;2.38;;
32295;SDS011;18781;51.550;5.418;2024-02-23T04:54:25;13.05;;;1.88;;
32295;SDS011;18781;51.550;5.418;2024-02-23T04:56:50;9.15;;;2.20;;
32295;SDS011;18781;51.550;5.418;2024-02-23T04:59:16;9.95;;;2.47;;
32295;SDS011;18781;51.550;5.418;2024-02-23T05:01:42;12.15;;;1.77;;
32295;SDS011;18781;51.550;5.418;2024-02-23T05:04:10;8.82;;;2.20;;
32295;SDS011;18781;51.550;5.418;2024-02-23T05:06:36;12.43;;;2.05;;
32295;SDS011;18781;51.550;5.418;2024-02-23T05:09:01;11.70;;;2.30;;
32295;SDS011;18781;51.550;5.418;2024-02-23T05:11:28;9.38;;;2.20;;
32295;SDS011;18781;51.550;5.418;2024-02-23T05:13:53;11.27;;;2.17;;
32295;SDS011;18781;51.550;5.418;2024-02-23T05:16:19;7.07;;;1.95;;
32295;SDS011;18781;51.550;5.418;2024-02-23T05:18:45;5.78;;;2.00;;
32295;SDS011;18781;51.550;5.418;2024-02-23T05:21:11;12.25;;;2.17;;
32295;SDS011;18781;51.550;5.418;2024-02-23T05:23:39;11.15;;;2.30;;
32295;SDS011;18781;51.550;5.418;2024-02-23T05:26:05;10.63;;;2.28;;
32295;SDS011;18781;51.550;5.418;2024-02-23T05:28:30;11.52;;;2.90;;
32295;SDS011;18781;51.550;5.418;2024-02-23T05:30:56;9.75;;;1.92;;
32295;SDS011;18781;51.550;5.418;2024-02-23T05:33:22;10.75;;;1.90;;
32295;SDS011;18781;51.550;5.418;2024-02-23T05:35:49;9.60;;;1.75;;
32295;SDS011;18781;51.550;5.418;2024-02-23T05:38:15;12.30;;;2.25;;
32295;SDS011;18781;51.550;5.418;2024-02-23T05:40:40;6.25;;;1.75;;
32295;SDS011;18781;51.550;5.418;2024-02-23T05:43:06;9.98;;;1.98;;
32295;SDS011;18781;51.550;5.418;2024-02-23T05:45:32;8.90;;;1.75;;
32295;SDS011;18781;51.550;5.418;2024-02-23T05:47:58;10.10;;;1.88;;
32295;SDS011;18781;51.550;5.418;2024-02-23T05:50:23;14.55;;;1.83;;
32295;SDS011;18781;51.550;5.418;2024-02-23T05:52:49;12.68;;;1.67;;
32295;SDS011;18781;51.550;5.418;2024-02-23T05:55:15;8.88;;;2.10;;
32295;SDS011;18781;51.550;5.418;2024-02-23T05:57:40;8.65;;;2.38;;
32295;SDS011;18781;51.550;5.418;2024-02-23T06:00:07;11.88;;;2.55;;
32295;SDS011;18781;51.550;5.418;2024-02-23T06:02:32;16.10;;;2.20;;
32295;SDS011;18781;51.550;5.418;2024-02-23T06:04:58;15.45;;;1.85;;
32295;SDS011;18781;51.550;5.418;2024-02-23T06:07:24;14.43;;;2.20;;
32295;SDS011;18781;51.550;5.418;2024-02-23T06:09:55;11.27;;;1.50;;
32295;SDS011;18781;51.550;5.418;2024-02-23T06:12:21;10.70;;;1.80;;
32295;SDS011;18781;51.550;5.418;2024-02-23T06:14:47;10.43;;;2.03;;
32295;SDS011;18781;51.550;5.418;2024-02-23T06:17:13;11.15;;;2.00;;
32295;SDS011;18781;51.550;5.418;2024-02-23T06:19:38;14.77;;;2.10;;
32295;SDS011;18781;51.550;5.418;2024-02-23T06:22:04;8.00;;;1.80;;
32295;SDS011;18781;51.550;5.418;2024-02-23T06:24:29;9.52;;;1.83;;
32295;SDS011;18781;51.550;5.418;2024-02-23T06:26:55;8.85;;;2.30;;
32295;SDS011;18781;51.550;5.418;2024-02-23T06:29:22;10.55;;;1.60;;
32295;SDS011;18781;51.550;5.418;2024-02-23T06:31:48;10.30;;;2.17;;
32295;SDS011;18781;51.550;5.418;2024-02-23T06:34:14;8.63;;;1.73;;
32295;SDS011;18781;51.550;5.418;2024-02-23T06:36:40;11.77;;;1.92;;
32295;SDS011;18781;51.550;5.418;2024-02-23T06:39:06;10.85;;;1.58;;
32295;SDS011;18781;51.550;5.418;2024-02-23T06:41:33;13.48;;;2.00;;
32295;SDS011;18781;51.550;5.418;2024-02-23T06:43:59;8.45;;;1.70;;
32295;SDS011;18781;51.550;5.418;2024-02-23T06:46:25;9.25;;;1.65;;
32295;SDS011;18781;51.550;5.418;2024-02-23T06:48:50;14.07;;;1.98;;
32295;SDS011;18781;51.550;5.418;2024-02-23T06:51:16;17.80;;;2.22;;
32295;SDS011;18781;51.550;5.418;2024-02-23T06:53:41;12.05;;;2.20;;
32295;SDS011;18781;51.550;5.418;2024-02-23T06:56:10;10.70;;;1.37;;
32295;SDS011;18781;51.550;5.418;2024-02-23T06:58:37;7.50;;;1.50;;
32295;SDS011;18781;51.550;5.418;2024-02-23T07:01:03;11.93;;;1.90;;
32295;SDS011;18781;51.550;5.418;2024-02-23T07:03:32;13.43;;;2.50;;
32295;SDS011;18781;51.550;5.418;2024-02-23T07:06:00;9.32;;;1.60;;
32295;SDS011;18781;51.550;5.418;2024-02-23T07:08:26;13.23;;;2.58;;
32295;SDS011;18781;51.550;5.418;2024-02-23T07:10:51;10.30;;;1.90;;
32295;SDS011;18781;51.550;5.418;2024-02-23T07:13:17;19.35;;;1.98;;
32295;SDS011;18781;51.550;5.418;2024-02-23T07:15:44;14.95;;;2.40;;
32295;SDS011;18781;51.550;5.418;2024-02-23T07:18:10;9.88;;;2.10;;
32295;SDS011;18781;51.550;5.418;2024-02-23T07:20:35;9.32;;;2.22;;
32295;SDS011;18781;51.550;5.418;2024-02-23T07:23:01;14.63;;;1.95;;
32295;SDS011;18781;51.550;5.418;2024-02-23T07:25:27;10.70;;;1.83;;
32295;SDS011;18781;51.550;5.418;2024-02-23T07:27:53;12.88;;;1.95;;
32295;SDS011;18781;51.550;5.418;2024-02-23T07:30:18;9.25;;;2.08;;
32295;SDS011;18781;51.550;5.418;2024-02-23T07:32:44;9.38;;;1.80;;
32295;SDS011;18781;51.550;5.418;2024-02-23T07:35:11;9.20;;;1.85;;
32295;SDS011;18781;51.550;5.418;2024-02-23T07:37:37;9.73;;;1.80;;
32295;SDS011;18781;51.550;5.418;2024-02-23T07:40:03;12.30;;;2.08;;
32295;SDS011;18781;51.550;5.418;2024-02-23T07:42:29;10.60;;;2.03;;
32295;SDS011;18781;51.550;5.418;2024-02-23T07:44:57;11.27;;;1.83;;
32295;SDS011;18781;51.550;5.418;2024-02-23T07:47:23;14.63;;;2.60;;
32295;SDS011;18781;51.550;5.418;2024-02-23T07:49:49;12.90;;;2.00;;
32295;SDS011;18781;51.550;5.418;2024-02-23T07:52:16;10.50;;;1.55;;
32295;SDS011;18781;51.550;5.418;2024-02-23T07:54:41;13.20;;;1.98;;
32295;SDS011;18781;51.550;5.418;2024-02-23T07:57:07;10.40;;;2.25;;
32295;SDS011;18781;51.550;5.418;2024-02-23T07:59:33;9.77;;;2.08;;
32295;SDS011;18781;51.550;5.418;2024-02-23T08:01:58;11.05;;;2.40;;
32295;SDS011;18781;51.550;5.418;2024-02-23T08:04:24;11.73;;;2.20;;
32295;SDS011;18781;51.550;5.418;2024-02-23T08:06:50;16.85;;;2.15;;
32295;SDS011;18781;51.550;5.418;2024-02-23T08:09:16;5.28;;;1.30;;
32295;SDS011;18781;51.550;5.418;2024-02-23T08:11:42;8.85;;;1.60;;
32295;SDS011;18781;51.550;5.418;2024-02-23T08:14:08;7.20;;;1.58;;
32295;SDS011;18781;51.550;5.418;2024-02-23T08:16:34;8.27;;;1.75;;
32295;SDS011;18781;51.550;5.418;2024-02-23T08:18:59;12.38;;;2.15;;
32295;SDS011;18781;51.550;5.418;2024-02-23T08:21:25;14.63;;;2.30;;
32295;SDS011;18781;51.550;5.418;2024-02-23T08:23:54;9.55;;;1.70;;
32295;SDS011;18781;51.550;5.418;2024-02-23T08:26:19;7.88;;;1.42;;
32295;SDS011;18781;51.550;5.418;2024-02-23T08:28:45;8.50;;;1.73;;
32295;SDS011;18781;51.550;5.418;2024-02-23T08:31:10;11.88;;;2.55;;
32295;SDS011;18781;51.550;5.418;2024-02-23T08:33:36;8.40;;;1.75;;
32295;SDS011;18781;51.550;5.418;2024-02-23T08:36:02;9.02;;;1.67;;
32295;SDS011;18781;51.550;5.418;2024-02-23T08:38:30;10.68;;;1.90;;
32295;SDS011;18781;51.550;5.418;2024-02-23T08:40:57;8.68;;;1.60;;
32295;SDS011;18781;51.550;5.418;2024-02-23T08:43:24;6.95;;;1.60;;
32295;SDS011;18781;51.550;5.418;2024-02-23T08:45:49;11.48;;;1.98;;
32295;SDS011;18781;51.550;5.418;2024-02-23T08:48:15;10.65;;;2.33;;
32295;SDS011;18781;51.550;5.418;2024-02-23T08:50:41;10.02;;;1.83;;
32295;SDS011;18781;51.550;5.418;2024-02-23T08:53:06;10.23;;;1.80;;
32295;SDS011;18781;51.550;5.418;2024-02-23T08:55:32;11.77;;;2.22;;
32295;SDS011;18781;51.550;5.418;2024-02-23T08:57:58;17.58;;;2.17;;
32295;SDS011;18781;51.550;5.418;2024-02-23T09:00:25;13.95;;;2.22;;
32295;SDS011;18781;51.550;5.418;2024-02-23T09:02:50;10.18;;;2.05;;
32295;SDS011;18781;51.550;5.418;2024-02-23T09:05:16;14.35;;;2.20;;
32295;SDS011;18781;51.550;5.418;2024-02-23T09:07:42;12.73;;;1.70;;
32295;SDS011;18781;51.550;5.418;2024-02-23T09:10:08;11.60;;;2.88;;
32295;SDS011;18781;51.550;5.418;2024-02-23T09:12:34;12.85;;;3.40;;
32295;SDS011;18781;51.550;5.418;2024-02-23T09:14:59;12.50;;;2.25;;
32295;SDS011;18781;51.550;5.418;2024-02-23T09:17:25;9.38;;;1.95;;
32295;SDS011;18781;51.550;5.418;2024-02-23T09:19:51;7.90;;;2.17;;
32295;SDS011;18781;51.550;5.418;2024-02-23T09:22:16;15.10;;;4.93;;
32295;SDS011;18781;51.550;5.418;2024-02-23T09:24:42;14.38;;;4.05;;
32295;SDS011;18781;51.550;5.418;2024-02-23T09:27:08;19.77;;;4.47;;
32295;SDS011;18781;51.550;5.418;2024-02-23T09:29:34;14.32;;;4.05;;
32295;SDS011;18781;51.550;5.418;2024-02-23T09:32:00;19.55;;;5.07;;
32295;SDS011;18781;51.550;5.418;2024-02-23T09:34:26;9.48;;;2.83;;
32295;SDS011;18781;51.550;5.418;2024-02-23T09:36:51;11.32;;;3.42;;
32295;SDS011;18781;51.550;5.418;2024-02-23T09:39:17;13.10;;;3.03;;
32295;SDS011;18781;51.550;5.418;2024-02-23T09:41:43;9.30;;;2.30;;
32295;SDS011;18781;51.550;5.418;2024-02-23T09:44:09;13.13;;;2.10;;
32295;SDS011;18781;51.550;5.418;2024-02-23T09:46:38;9.20;;;1.92;;
32295;SDS011;18781;51.550;5.418;2024-02-23T09:49:05;12.70;;;2.38;;
32295;SDS011;18781;51.550;5.418;2024-02-23T09:51:33;11.95;;;3.00;;
32295;SDS011;18781;51.550;5.418;2024-02-23T09:54:01;13.55;;;4.30;;
32295;SDS011;18781;51.550;5.418;2024-02-23T09:56:27;9.27;;;2.15;;
32295;SDS011;18781;51.550;5.418;2024-02-23T09:58:59;11.73;;;2.67;;
32295;SDS011;18781;51.550;5.418;2024-02-23T10:01:30;19.58;;;4.78;;
32295;SDS011;18781;51.550;5.418;2024-02-23T10:03:57;8.82;;;2.10;;
32295;SDS011;18781;51.550;5.418;2024-02-23T10:06:27;12.75;;;2.40;;
32295;SDS011;18781;51.550;5.418;2024-02-23T10:08:53;10.18;;;2.00;;
32295;SDS011;18781;51.550;5.418;2024-02-23T10:11:22;7.57;;;1.80;;
32295;SDS011;18781;51.550;5.418;2024-02-23T10:13:48;4.68;;;1.50;;
32295;SDS011;18781;51.550;5.418;2024-02-23T10:16:20;7.63;;;1.83;;
32295;SDS011;18781;51.550;5.418;2024-02-23T10:18:47;6.20;;;1.42;;
32295;SDS011;18781;51.550;5.418;2024-02-23T10:21:13;7.60;;;2.03;;
32295;SDS011;18781;51.550;5.418;2024-02-23T10:23:40;6.40;;;1.58;;
32295;SDS011;18781;51.550;5.418;2024-02-23T10:26:06;9.90;;;3.28;;
32295;SDS011;18781;51.550;5.418;2024-02-23T10:28:33;5.93;;;1.83;;
32295;SDS011;18781;51.550;5.418;2024-02-23T10:31:00;10.75;;;2.85;;
32295;SDS011;18781;51.550;5.418;2024-02-23T10:33:26;8.52;;;2.45;;
32295;SDS011;18781;51.550;5.418;2024-02-23T10:35:54;11.85;;;3.03;;
32295;SDS011;18781;51.550;5.418;2024-02-23T10:38:24;11.30;;;3.28;;
32295;SDS011;18781;51.550;5.418;2024-02-23T10:40:52;7.30;;;1.35;;
32295;SDS011;18781;51.550;5.418;2024-02-23T10:43:22;4.75;;;1.48;;
32295;SDS011;18781;51.550;5.418;2024-02-23T10:45:55;5.78;;;1.70;;
32295;SDS011;18781;51.550;5.418;2024-02-23T10:48:22;10.93;;;2.33;;
32295;SDS011;18781;51.550;5.418;2024-02-23T10:50:49;10.30;;;1.98;;
32295;SDS011;18781;51.550;5.418;2024-02-23T10:53:15;9.95;;;1.95;;
32295;SDS011;18781;51.550;5.418;2024-02-23T10:55:44;8.52;;;1.65;;
32295;SDS011;18781;51.550;5.418;2024-02-23T10:58:11;7.93;;;1.65;;
32295;SDS011;18781;51.550;5.418;2024-02-23T11:00:38;6.85;;;1.67;;
32295;SDS011;18781;51.550;5.418;2024-02-23T11:03:04;10.00;;;1.67;;
32295;SDS011;18781;51.550;5.418;2024-02-23T11:05:32;9.73;;;1.77;;
32295;SDS011;18781;51.550;5.418;2024-02-23T11:07:58;7.63;;;1.38;;
32295;SDS011;18781;51.550;5.418;2024-02-23T11:10:24;6.63;;;1.73;;
32295;SDS011;18781;51.550;5.418;2024-02-23T11:12:59;10.32;;;2.17;;
32295;SDS011;18781;51.550;5.418;2024-02-23T11:15:29;7.15;;;1.40;;
32295;SDS011;18781;51.550;5.418;2024-02-23T11:17:55;7.32;;;1.90;;
32295;SDS011;18781;51.550;5.418;2024-02-23T11:20:21;8.57;;;1.85;;
32295;SDS011;18781;51.550;5.418;2024-02-23T11:22:51;8.95;;;2.50;;
32295;SDS011;18781;51.550;5.418;2024-02-23T11:25:18;7.50;;;1.90;;
32295;SDS011;18781;51.550;5.418;2024-02-23T11:27:45;8.73;;;1.90;;
32295;SDS011;18781;51.550;5.418;2024-02-23T11:30:16;10.70;;;2.83;;
32295;SDS011;18781;51.550;5.418;2024-02-23T11:35:13;7.18;;;1.70;;
32295;SDS011;18781;51.550;5.418;2024-02-23T11:37:51;14.02;;;3.03;;
32295;SDS011;18781;51.550;5.418;2024-02-23T11:40:26;12.80;;;2.50;;
32295;SDS011;18781;51.550;5.418;2024-02-23T11:42:52;7.45;;;2.30;;
32295;SDS011;18781;51.550;5.418;2024-02-23T11:45:19;9.20;;;2.20;;
32295;SDS011;18781;51.550;5.418;2024-02-23T11:47:45;9.73;;;2.13;;
32295;SDS011;18781;51.550;5.418;2024-02-23T11:50:11;6.72;;;1.58;;
32295;SDS011;18781;51.550;5.418;2024-02-23T11:52:37;9.48;;;2.50;;
32295;SDS011;18781;51.550;5.418;2024-02-23T11:55:04;10.95;;;1.85;;
32295;SDS011;18781;51.550;5.418;2024-02-23T11:57:30;11.88;;;1.98;;
32295;SDS011;18781;51.550;5.418;2024-02-23T11:59:57;6.03;;;2.22;;
32295;SDS011;18781;51.550;5.418;2024-02-23T12:02:23;11.60;;;2.30;;
32295;SDS011;18781;51.550;5.418;2024-02-23T12:04:49;7.75;;;2.20;;
32295;SDS011;18781;51.550;5.418;2024-02-23T12:07:15;10.10;;;2.30;;
32295;SDS011;18781;51.550;5.418;2024-02-23T12:09:41;8.57;;;1.83;;
32295;SDS011;18781;51.550;5.418;2024-02-23T12:12:07;5.95;;;1.67;;
32295;SDS011;18781;51.550;5.418;2024-02-23T12:14:37;7.75;;;3.03;;
32295;SDS011;18781;51.550;5.418;2024-02-23T12:17:04;8.52;;;2.05;;
32295;SDS011;18781;51.550;5.418;2024-02-23T12:19:32;10.80;;;2.45;;
32295;SDS011;18781;51.550;5.418;2024-02-23T12:22:01;10.35;;;2.10;;
32295;SDS011;18781;51.550;5.418;2024-02-23T12:24:27;7.47;;;2.22;;
32295;SDS011;18781;51.550;5.418;2024-02-23T12:26:56;21.55;;;5.68;;
32295;SDS011;18781;51.550;5.418;2024-02-23T12:29:22;14.05;;;3.10;;
32295;SDS011;18781;51.550;5.418;2024-02-23T12:31:49;19.48;;;5.43;;
32295;SDS011;18781;51.550;5.418;2024-02-23T12:34:14;24.80;;;7.32;;
32295;SDS011;18781;51.550;5.418;2024-02-23T12:36:41;15.35;;;4.43;;
32295;SDS011;18781;51.550;5.418;2024-02-23T12:39:07;16.40;;;4.95;;
32295;SDS011;18781;51.550;5.418;2024-02-23T12:41:33;8.25;;;2.40;;
32295;SDS011;18781;51.550;5.418;2024-02-23T12:43:59;11.60;;;2.28;;
32295;SDS011;18781;51.550;5.418;2024-02-23T12:46:24;12.60;;;2.08;;
32295;SDS011;18781;51.550;5.418;2024-02-23T12:48:50;9.52;;;2.00;;
32295;SDS011;18781;51.550;5.418;2024-02-23T12:51:16;7.43;;;2.20;;
32295;SDS011;18781;51.550;5.418;2024-02-23T12:53:43;7.53;;;2.42;;
32295;SDS011;18781;51.550;5.418;2024-02-23T12:56:12;11.57;;;2.55;;
32295;SDS011;18781;51.550;5.418;2024-02-23T12:58:41;10.68;;;2.40;;
32295;SDS011;18781;51.550;5.418;2024-02-23T13:01:07;9.45;;;2.47;;
32295;SDS011;18781;51.550;5.418;2024-02-23T13:03:34;10.88;;;2.63;;
32295;SDS011;18781;51.550;5.418;2024-02-23T13:06:01;9.00;;;2.42;;
32295;SDS011;18781;51.550;5.418;2024-02-23T13:08:27;10.75;;;2.70;;
32295;SDS011;18781;51.550;5.418;2024-02-23T13:10:53;9.25;;;2.28;;
32295;SDS011;18781;51.550;5.418;2024-02-23T13:13:20;11.07;;;2.47;;
32295;SDS011;18781;51.550;5.418;2024-02-23T13:15:47;9.45;;;2.40;;
32295;SDS011;18781;51.550;5.418;2024-02-23T13:18:13;7.55;;;1.92;;
32295;SDS011;18781;51.550;5.418;2024-02-23T13:20:39;10.23;;;1.58;;
32295;SDS011;18781;51.550;5.418;2024-02-23T13:23:11;10.00;;;1.98;;
32295;SDS011;18781;51.550;5.418;2024-02-23T13:25:38;8.88;;;2.40;;
32295;SDS011;18781;51.550;5.418;2024-02-23T13:28:04;9.68;;;2.22;;
32295;SDS011;18781;51.550;5.418;2024-02-23T13:30:31;12.10;;;1.50;;
32295;SDS011;18781;51.550;5.418;2024-02-23T13:32:57;9.88;;;1.50;;
32295;SDS011;18781;51.550;5.418;2024-02-23T13:35:23;8.77;;;1.80;;
32295;SDS011;18781;51.550;5.418;2024-02-23T13:37:48;7.90;;;1.75;;
32295;SDS011;18781;51.550;5.418;2024-02-23T13:40:14;11.45;;;1.70;;
32295;SDS011;18781;51.550;5.418;2024-02-23T13:42:40;8.70;;;1.60;;
32295;SDS011;18781;51.550;5.418;2024-02-23T13:45:06;7.05;;;1.73;;
32295;SDS011;18781;51.550;5.418;2024-02-23T13:47:34;5.85;;;1.65;;
32295;SDS011;18781;51.550;5.418;2024-02-23T13:50:00;7.75;;;2.05;;
32295;SDS011;18781;51.550;5.418;2024-02-23T13:52:27;9.10;;;2.30;;
32295;SDS011;18781;51.550;5.418;2024-02-23T13:54:53;6.43;;;1.88;;
32295;SDS011;18781;51.550;5.418;2024-02-23T13:57:18;7.78;;;1.60;;
32295;SDS011;18781;51.550;5.418;2024-02-23T13:59:44;8.63;;;1.77;;
32295;SDS011;18781;51.550;5.418;2024-02-23T14:02:10;11.35;;;1.88;;
32295;SDS011;18781;51.550;5.418;2024-02-23T14:04:35;7.07;;;1.63;;
32295;SDS011;18781;51.550;5.418;2024-02-23T14:07:01;9.57;;;2.88;;
32295;SDS011;18781;51.550;5.418;2024-02-23T14:09:27;12.35;;;3.15;;
32295;SDS011;18781;51.550;5.418;2024-02-23T14:11:52;7.90;;;1.52;;
32295;SDS011;18781;51.550;5.418;2024-02-23T14:14:18;7.45;;;1.77;;
32295;SDS011;18781;51.550;5.418;2024-02-23T14:16:45;5.25;;;1.25;;
32295;SDS011;18781;51.550;5.418;2024-02-23T14:19:11;4.57;;;1.50;;
32295;SDS011;18781;51.550;5.418;2024-02-23T14:21:36;7.50;;;1.60;;
32295;SDS011;18781;51.550;5.418;2024-02-23T14:24:02;8.88;;;1.95;;
32295;SDS011;18781;51.550;5.418;2024-02-23T14:26:29;9.57;;;1.92;;
32295;SDS011;18781;51.550;5.418;2024-02-23T14:28:54;10.32;;;2.00;;
32295;SDS011;18781;51.550;5.418;2024-02-23T14:31:20;4.38;;;1.45;;
32295;SDS011;18781;51.550;5.418;2024-02-23T14:33:46;5.97;;;1.88;;
32295;SDS011;18781;51.550;5.418;2024-02-23T14:36:15;9.27;;;1.70;;
32295;SDS011;18781;51.550;5.418;2024-02-23T14:38:41;11.00;;;1.95;;
32295;SDS011;18781;51.550;5.418;2024-02-23T14:41:07;6.47;;;1.70;;